sensor_id;sensor_type;location;lat;lon;timestamp;temperature;humidity
45409;DHT22;31162;51.076;3.784;2023-03-23T00:01:56;13.50;99.90
45409;DHT22;31162;51.076;3.784;2023-03-23T00:04:22;13.50;99.90
45409;DHT22;31162;51.076;3.784;2023-03-23T00:06:48;13.50;99.90
45409;DHT22;31162;51.076;3.784;2023-03-23T00:09:14;13.50;99.90
45409;DHT22;31162;51.076;3.784;2023-03-23T00:11:42;13.60;99.90
45409;DHT22;31162;51.076;3.784;2023-03-23T00:14:09;13.60;99.90
45409;DHT22;31162;51.076;3.784;2023-03-23T00:16:39;13.60;99.90
45409;DHT22;31162;51.076;3.784;2023-03-23T00:19:11;13.50;99.90
45409;DHT22;31162;51.076;3.784;2023-03-23T00:21:41;13.50;99.90
45409;DHT22;31162;51.076;3.784;2023-03-23T00:24:10;13.40;99.90
45409;DHT22;31162;51.076;3.784;2023-03-23T00:26:37;13.40;99.90
45409;DHT22;31162;51.076;3.784;2023-03-23T00:29:07;13.40;99.90
45409;DHT22;31162;51.076;3.784;2023-03-23T00:31:35;13.40;99.90
45409;DHT22;31162;51.076;3.784;2023-03-23T00:34:03;13.40;99.90
45409;DHT22;31162;51.076;3.784;2023-03-23T00:36:33;13.40;99.90
45409;DHT22;31162;51.076;3.784;2023-03-23T00:39:02;13.30;99.90
45409;DHT22;31162;51.076;3.784;2023-03-23T00:41:29;13.20;99.90
45409;DHT22;31162;51.076;3.784;2023-03-23T00:43:57;13.10;99.90
45409;DHT22;31162;51.076;3.784;2023-03-23T00:46:24;13.10;99.90
45409;DHT22;31162;51.076;3.784;2023-03-23T00:48:50;13.20;99.90
45409;DHT22;31162;51.076;3.784;2023-03-23T00:51:18;13.20;99.90
45409;DHT22;31162;51.076;3.784;2023-03-23T00:53:44;13.20;99.90
45409;DHT22;31162;51.076;3.784;2023-03-23T00:56:11;13.30;99.90
45409;DHT22;31162;51.076;3.784;2023-03-23T00:58:36;13.30;99.90
45409;DHT22;31162;51.076;3.784;2023-03-23T01:01:03;13.30;99.90
45409;DHT22;31162;51.076;3.784;2023-03-23T01:03:29;13.20;99.90
45409;DHT22;31162;51.076;3.784;2023-03-23T01:05:55;13.20;99.90
45409;DHT22;31162;51.076;3.784;2023-03-23T01:08:22;13.20;99.90
45409;DHT22;31162;51.076;3.784;2023-03-23T01:10:48;13.30;99.90
45409;DHT22;31162;51.076;3.784;2023-03-23T01:13:15;13.30;99.90
45409;DHT22;31162;51.076;3.784;2023-03-23T01:15:41;13.30;99.90
45409;DHT22;31162;51.076;3.784;2023-03-23T01:18:08;13.30;99.90
45409;DHT22;31162;51.076;3.784;2023-03-23T01:20:35;13.30;99.90
45409;DHT22;31162;51.076;3.784;2023-03-23T01:23:02;13.30;99.90
45409;DHT22;31162;51.076;3.784;2023-03-23T01:25:32;13.40;99.90
45409;DHT22;31162;51.076;3.784;2023-03-23T01:28:00;13.30;99.90
45409;DHT22;31162;51.076;3.784;2023-03-23T01:30:25;13.20;99.90
45409;DHT22;31162;51.076;3.784;2023-03-23T01:32:52;13.20;99.90
45409;DHT22;31162;51.076;3.784;2023-03-23T01:35:18;13.20;99.90
45409;DHT22;31162;51.076;3.784;2023-03-23T01:37:44;13.20;99.90
45409;DHT22;31162;51.076;3.784;2023-03-23T01:40:10;13.30;99.90
45409;DHT22;31162;51.076;3.784;2023-03-23T01:42:38;13.20;99.90
45409;DHT22;31162;51.076;3.784;2023-03-23T01:48:07;13.20;99.90
45409;DHT22;31162;51.076;3.784;2023-03-23T01:50:36;13.20;99.90
45409;DHT22;31162;51.076;3.784;2023-03-23T01:53:04;13.20;99.90
45409;DHT22;31162;51.076;3.784;2023-03-23T01:55:34;13.20;99.90
45409;DHT22;31162;51.076;3.784;2023-03-23T01:58:02;13.20;99.90
45409;DHT22;31162;51.076;3.784;2023-03-23T02:00:29;13.20;99.90
45409;DHT22;31162;51.076;3.784;2023-03-23T02:02:55;13.20;99.90
45409;DHT22;31162;51.076;3.784;2023-03-23T02:05:34;13.20;99.90
45409;DHT22;31162;51.076;3.784;2023-03-23T02:08:04;13.30;99.90
45409;DHT22;31162;51.076;3.784;2023-03-23T02:10:32;13.30;99.90
45409;DHT22;31162;51.076;3.784;2023-03-23T02:13:01;13.30;99.90
45409;DHT22;31162;51.076;3.784;2023-03-23T02:15:56;13.20;99.90
45409;DHT22;31162;51.076;3.784;2023-03-23T02:21:11;13.20;99.90
45409;DHT22;31162;51.076;3.784;2023-03-23T02:27:05;13.20;99.90
45409;DHT22;31162;51.076;3.784;2023-03-23T02:34:52;13.20;99.90
45409;DHT22;31162;51.076;3.784;2023-03-23T02:37:21;13.20;99.90
45409;DHT22;31162;51.076;3.784;2023-03-23T02:40:02;13.20;99.90
45409;DHT22;31162;51.076;3.784;2023-03-23T02:42:40;13.30;99.90
45409;DHT22;31162;51.076;3.784;2023-03-23T02:45:09;13.20;99.90
45409;DHT22;31162;51.076;3.784;2023-03-23T02:47:37;13.30;99.90
45409;DHT22;31162;51.076;3.784;2023-03-23T02:50:05;13.40;99.90
45409;DHT22;31162;51.076;3.784;2023-03-23T02:52:33;13.30;99.90
45409;DHT22;31162;51.076;3.784;2023-03-23T02:55:00;13.30;99.90
45409;DHT22;31162;51.076;3.784;2023-03-23T02:57:27;13.30;99.90
45409;DHT22;31162;51.076;3.784;2023-03-23T02:59:54;13.30;99.90
45409;DHT22;31162;51.076;3.784;2023-03-23T03:02:28;13.40;99.90
45409;DHT22;31162;51.076;3.784;2023-03-23T03:05:09;13.40;99.90
45409;DHT22;31162;51.076;3.784;2023-03-23T03:10:26;13.40;99.90
45409;DHT22;31162;51.076;3.784;2023-03-23T03:13:19;13.30;99.90
45409;DHT22;31162;51.076;3.784;2023-03-23T03:19:03;13.50;99.90
45409;DHT22;31162;51.076;3.784;2023-03-23T03:21:34;13.50;99.90
45409;DHT22;31162;51.076;3.784;2023-03-23T03:24:03;13.40;99.90
45409;DHT22;31162;51.076;3.784;2023-03-23T03:26:30;13.20;99.90
45409;DHT22;31162;51.076;3.784;2023-03-23T03:28:58;13.10;99.90
45409;DHT22;31162;51.076;3.784;2023-03-23T03:31:28;13.00;99.90
45409;DHT22;31162;51.076;3.784;2023-03-23T03:33:54;12.90;99.90
45409;DHT22;31162;51.076;3.784;2023-03-23T03:36:23;12.80;99.90
45409;DHT22;31162;51.076;3.784;2023-03-23T03:38:51;12.70;99.90
45409;DHT22;31162;51.076;3.784;2023-03-23T03:41:18;12.60;99.90
45409;DHT22;31162;51.076;3.784;2023-03-23T03:43:44;12.60;99.90
45409;DHT22;31162;51.076;3.784;2023-03-23T03:46:09;12.70;99.90
45409;DHT22;31162;51.076;3.784;2023-03-23T03:48:36;12.70;99.90
45409;DHT22;31162;51.076;3.784;2023-03-23T03:51:01;12.60;99.90
45409;DHT22;31162;51.076;3.784;2023-03-23T03:53:28;12.60;99.90
45409;DHT22;31162;51.076;3.784;2023-03-23T03:55:55;12.50;99.90
45409;DHT22;31162;51.076;3.784;2023-03-23T03:58:28;12.50;99.90
45409;DHT22;31162;51.076;3.784;2023-03-23T04:01:00;12.50;99.90
45409;DHT22;31162;51.076;3.784;2023-03-23T04:03:27;12.50;99.90
45409;DHT22;31162;51.076;3.784;2023-03-23T04:05:54;12.50;99.90
45409;DHT22;31162;51.076;3.784;2023-03-23T04:08:21;12.60;99.90
45409;DHT22;31162;51.076;3.784;2023-03-23T04:10:48;12.60;99.90
45409;DHT22;31162;51.076;3.784;2023-03-23T04:13:14;12.60;99.90
45409;DHT22;31162;51.076;3.784;2023-03-23T04:15:40;12.70;99.90
45409;DHT22;31162;51.076;3.784;2023-03-23T04:18:06;12.70;99.90
45409;DHT22;31162;51.076;3.784;2023-03-23T04:20:32;12.80;99.90
45409;DHT22;31162;51.076;3.784;2023-03-23T04:23:00;12.80;99.90
45409;DHT22;31162;51.076;3.784;2023-03-23T04:25:27;12.80;99.90
45409;DHT22;31162;51.076;3.784;2023-03-23T04:27:53;12.80;99.90
45409;DHT22;31162;51.076;3.784;2023-03-23T04:30:24;12.80;99.90
45409;DHT22;31162;51.076;3.784;2023-03-23T04:32:51;12.80;99.90
45409;DHT22;31162;51.076;3.784;2023-03-23T04:35:18;12.90;99.90
45409;DHT22;31162;51.076;3.784;2023-03-23T04:37:45;12.90;99.90
45409;DHT22;31162;51.076;3.784;2023-03-23T04:40:12;12.90;99.90
45409;DHT22;31162;51.076;3.784;2023-03-23T04:42:43;12.90;99.90
45409;DHT22;31162;51.076;3.784;2023-03-23T04:45:18;12.90;99.90
45409;DHT22;31162;51.076;3.784;2023-03-23T04:47:51;12.80;99.90
45409;DHT22;31162;51.076;3.784;2023-03-23T04:50:24;12.70;99.90
45409;DHT22;31162;51.076;3.784;2023-03-23T04:52:51;12.80;99.90
45409;DHT22;31162;51.076;3.784;2023-03-23T04:55:19;12.80;99.90
45409;DHT22;31162;51.076;3.784;2023-03-23T04:57:46;12.90;99.90
45409;DHT22;31162;51.076;3.784;2023-03-23T05:00:12;12.90;99.90
45409;DHT22;31162;51.076;3.784;2023-03-23T05:02:40;12.80;99.90
45409;DHT22;31162;51.076;3.784;2023-03-23T05:05:11;12.90;99.90
45409;DHT22;31162;51.076;3.784;2023-03-23T05:07:40;12.70;99.90
45409;DHT22;31162;51.076;3.784;2023-03-23T05:10:08;12.60;99.90
45409;DHT22;31162;51.076;3.784;2023-03-23T05:12:34;12.60;99.90
45409;DHT22;31162;51.076;3.784;2023-03-23T05:15:00;12.70;99.90
45409;DHT22;31162;51.076;3.784;2023-03-23T05:17:26;12.70;99.90
45409;DHT22;31162;51.076;3.784;2023-03-23T05:19:52;12.70;99.90
45409;DHT22;31162;51.076;3.784;2023-03-23T05:22:19;12.70;99.90
45409;DHT22;31162;51.076;3.784;2023-03-23T05:24:47;12.60;99.90
45409;DHT22;31162;51.076;3.784;2023-03-23T05:27:13;12.50;99.90
45409;DHT22;31162;51.076;3.784;2023-03-23T05:29:40;12.50;99.90
45409;DHT22;31162;51.076;3.784;2023-03-23T05:32:09;12.40;99.90
45409;DHT22;31162;51.076;3.784;2023-03-23T05:34:35;12.40;99.90
45409;DHT22;31162;51.076;3.784;2023-03-23T05:37:04;12.20;99.90
45409;DHT22;31162;51.076;3.784;2023-03-23T05:39:30;12.20;99.90
45409;DHT22;31162;51.076;3.784;2023-03-23T05:41:57;12.20;99.90
45409;DHT22;31162;51.076;3.784;2023-03-23T05:44:22;12.00;99.90
45409;DHT22;31162;51.076;3.784;2023-03-23T05:46:48;11.90;99.90
45409;DHT22;31162;51.076;3.784;2023-03-23T05:49:15;11.80;99.90
45409;DHT22;31162;51.076;3.784;2023-03-23T05:51:44;11.50;99.90
45409;DHT22;31162;51.076;3.784;2023-03-23T05:54:12;11.40;99.90
45409;DHT22;31162;51.076;3.784;2023-03-23T05:56:38;11.40;99.90
45409;DHT22;31162;51.076;3.784;2023-03-23T05:59:04;11.40;99.90
45409;DHT22;31162;51.076;3.784;2023-03-23T06:01:30;11.30;99.90
45409;DHT22;31162;51.076;3.784;2023-03-23T06:03:57;11.30;99.90
45409;DHT22;31162;51.076;3.784;2023-03-23T06:06:28;11.20;99.90
45409;DHT22;31162;51.076;3.784;2023-03-23T06:08:55;11.10;99.90
45409;DHT22;31162;51.076;3.784;2023-03-23T06:11:21;11.00;99.90
45409;DHT22;31162;51.076;3.784;2023-03-23T06:13:46;11.00;99.90
45409;DHT22;31162;51.076;3.784;2023-03-23T06:16:13;11.00;99.90
45409;DHT22;31162;51.076;3.784;2023-03-23T06:18:38;11.10;99.90
45409;DHT22;31162;51.076;3.784;2023-03-23T06:21:06;11.00;99.90
45409;DHT22;31162;51.076;3.784;2023-03-23T06:23:33;11.00;99.90
45409;DHT22;31162;51.076;3.784;2023-03-23T06:26:04;10.90;99.90
45409;DHT22;31162;51.076;3.784;2023-03-23T06:28:31;10.90;99.90
45409;DHT22;31162;51.076;3.784;2023-03-23T06:31:01;10.80;99.90
45409;DHT22;31162;51.076;3.784;2023-03-23T06:33:27;10.90;99.90
45409;DHT22;31162;51.076;3.784;2023-03-23T06:35:52;10.80;99.90
45409;DHT22;31162;51.076;3.784;2023-03-23T06:38:19;10.70;99.90
45409;DHT22;31162;51.076;3.784;2023-03-23T06:40:45;10.70;99.90
45409;DHT22;31162;51.076;3.784;2023-03-23T06:43:12;10.60;99.90
45409;DHT22;31162;51.076;3.784;2023-03-23T06:45:39;10.70;99.90
45409;DHT22;31162;51.076;3.784;2023-03-23T06:48:05;10.70;99.90
45409;DHT22;31162;51.076;3.784;2023-03-23T06:50:31;10.70;99.90
45409;DHT22;31162;51.076;3.784;2023-03-23T06:52:56;10.70;99.90
45409;DHT22;31162;51.076;3.784;2023-03-23T06:55:22;10.80;99.90
45409;DHT22;31162;51.076;3.784;2023-03-23T06:57:48;10.70;99.90
45409;DHT22;31162;51.076;3.784;2023-03-23T07:00:14;10.80;99.90
45409;DHT22;31162;51.076;3.784;2023-03-23T07:02:40;10.80;99.90
45409;DHT22;31162;51.076;3.784;2023-03-23T07:05:07;10.80;99.90
45409;DHT22;31162;51.076;3.784;2023-03-23T07:07:38;10.80;99.90
45409;DHT22;31162;51.076;3.784;2023-03-23T07:10:06;10.80;99.90
45409;DHT22;31162;51.076;3.784;2023-03-23T07:12:32;10.80;99.90
45409;DHT22;31162;51.076;3.784;2023-03-23T07:14:58;10.90;99.90
45409;DHT22;31162;51.076;3.784;2023-03-23T07:17:25;10.90;99.90
45409;DHT22;31162;51.076;3.784;2023-03-23T07:19:50;10.90;99.90
45409;DHT22;31162;51.076;3.784;2023-03-23T07:22:16;11.00;99.90
45409;DHT22;31162;51.076;3.784;2023-03-23T07:24:42;11.00;99.90
45409;DHT22;31162;51.076;3.784;2023-03-23T07:27:08;11.00;99.90
45409;DHT22;31162;51.076;3.784;2023-03-23T07:29:34;11.00;99.90
45409;DHT22;31162;51.076;3.784;2023-03-23T07:32:01;11.10;99.90
45409;DHT22;31162;51.076;3.784;2023-03-23T07:34:27;11.30;99.90
45409;DHT22;31162;51.076;3.784;2023-03-23T07:36:53;11.40;99.90
45409;DHT22;31162;51.076;3.784;2023-03-23T07:39:19;11.40;99.90
45409;DHT22;31162;51.076;3.784;2023-03-23T07:41:45;11.50;99.90
45409;DHT22;31162;51.076;3.784;2023-03-23T07:44:10;11.70;99.90
45409;DHT22;31162;51.076;3.784;2023-03-23T07:46:36;11.60;99.90
45409;DHT22;31162;51.076;3.784;2023-03-23T07:49:02;11.60;99.90
45409;DHT22;31162;51.076;3.784;2023-03-23T07:51:31;11.70;99.90
45409;DHT22;31162;51.076;3.784;2023-03-23T07:53:57;11.70;99.90
45409;DHT22;31162;51.076;3.784;2023-03-23T07:56:23;11.80;99.90
45409;DHT22;31162;51.076;3.784;2023-03-23T07:58:49;11.90;99.90
45409;DHT22;31162;51.076;3.784;2023-03-23T08:01:15;12.00;99.90
45409;DHT22;31162;51.076;3.784;2023-03-23T08:03:41;12.00;99.90
45409;DHT22;31162;51.076;3.784;2023-03-23T08:06:08;12.10;99.90
45409;DHT22;31162;51.076;3.784;2023-03-23T08:08:34;12.30;99.90
45409;DHT22;31162;51.076;3.784;2023-03-23T08:11:00;12.70;99.90
45409;DHT22;31162;51.076;3.784;2023-03-23T08:13:25;13.10;99.90
45409;DHT22;31162;51.076;3.784;2023-03-23T08:15:51;13.10;99.90
45409;DHT22;31162;51.076;3.784;2023-03-23T08:18:17;14.30;99.90
45409;DHT22;31162;51.076;3.784;2023-03-23T08:20:43;16.10;99.90
45409;DHT22;31162;51.076;3.784;2023-03-23T08:23:10;17.30;99.90
45409;DHT22;31162;51.076;3.784;2023-03-23T08:25:36;18.60;99.90
45409;DHT22;31162;51.076;3.784;2023-03-23T08:28:03;19.70;99.90
45409;DHT22;31162;51.076;3.784;2023-03-23T08:30:29;20.90;99.90
45409;DHT22;31162;51.076;3.784;2023-03-23T08:32:57;21.60;99.90
45409;DHT22;31162;51.076;3.784;2023-03-23T08:35:23;22.40;99.90
45409;DHT22;31162;51.076;3.784;2023-03-23T08:37:49;23.20;99.90
45409;DHT22;31162;51.076;3.784;2023-03-23T08:40:21;23.10;99.90
45409;DHT22;31162;51.076;3.784;2023-03-23T08:42:48;22.80;99.90
45409;DHT22;31162;51.076;3.784;2023-03-23T08:45:17;23.10;99.90
45409;DHT22;31162;51.076;3.784;2023-03-23T08:47:44;22.90;99.90
45409;DHT22;31162;51.076;3.784;2023-03-23T08:50:13;22.70;99.90
45409;DHT22;31162;51.076;3.784;2023-03-23T08:52:39;22.50;99.90
45409;DHT22;31162;51.076;3.784;2023-03-23T08:55:05;22.80;99.90
45409;DHT22;31162;51.076;3.784;2023-03-23T08:57:34;23.30;99.90
45409;DHT22;31162;51.076;3.784;2023-03-23T09:00:03;22.70;99.90
45409;DHT22;31162;51.076;3.784;2023-03-23T09:02:40;22.00;99.90
45409;DHT22;31162;51.076;3.784;2023-03-23T09:05:05;22.20;99.90
45409;DHT22;31162;51.076;3.784;2023-03-23T09:07:32;22.70;99.90
45409;DHT22;31162;51.076;3.784;2023-03-23T09:09:58;22.00;99.90
45409;DHT22;31162;51.076;3.784;2023-03-23T09:12:24;21.50;99.90
45409;DHT22;31162;51.076;3.784;2023-03-23T09:14:50;21.00;99.90
45409;DHT22;31162;51.076;3.784;2023-03-23T09:17:15;20.70;99.90
45409;DHT22;31162;51.076;3.784;2023-03-23T09:19:41;21.40;99.90
45409;DHT22;31162;51.076;3.784;2023-03-23T09:22:07;21.90;99.90
45409;DHT22;31162;51.076;3.784;2023-03-23T09:24:33;22.50;99.90
45409;DHT22;31162;51.076;3.784;2023-03-23T09:26:59;23.20;99.90
45409;DHT22;31162;51.076;3.784;2023-03-23T09:29:26;24.10;99.90
45409;DHT22;31162;51.076;3.784;2023-03-23T09:31:52;23.10;99.90
45409;DHT22;31162;51.076;3.784;2023-03-23T09:34:18;22.20;99.90
45409;DHT22;31162;51.076;3.784;2023-03-23T09:36:44;21.90;99.90
45409;DHT22;31162;51.076;3.784;2023-03-23T09:39:11;21.60;99.90
45409;DHT22;31162;51.076;3.784;2023-03-23T09:47:02;21.20;99.90
45409;DHT22;31162;51.076;3.784;2023-03-23T09:49:38;20.90;99.90
45409;DHT22;31162;51.076;3.784;2023-03-23T09:52:14;20.90;99.90
45409;DHT22;31162;51.076;3.784;2023-03-23T09:54:43;21.70;99.90
45409;DHT22;31162;51.076;3.784;2023-03-23T09:57:30;20.40;99.90
45409;DHT22;31162;51.076;3.784;2023-03-23T10:00:26;19.60;99.90
45409;DHT22;31162;51.076;3.784;2023-03-23T10:05:52;19.10;99.90
45409;DHT22;31162;51.076;3.784;2023-03-23T10:08:21;18.60;99.90
45409;DHT22;31162;51.076;3.784;2023-03-23T10:11:14;18.10;99.90
45409;DHT22;31162;51.076;3.784;2023-03-23T10:22:09;17.90;99.90
45409;DHT22;31162;51.076;3.784;2023-03-23T10:24:43;18.10;99.90
45409;DHT22;31162;51.076;3.784;2023-03-23T10:29:54;17.30;99.90
45409;DHT22;31162;51.076;3.784;2023-03-23T10:32:43;17.10;99.90
45409;DHT22;31162;51.076;3.784;2023-03-23T10:35:14;17.00;99.90
45409;DHT22;31162;51.076;3.784;2023-03-23T10:37:44;17.30;99.90
45409;DHT22;31162;51.076;3.784;2023-03-23T10:40:21;17.60;99.90
45409;DHT22;31162;51.076;3.784;2023-03-23T10:42:49;17.80;99.90
45409;DHT22;31162;51.076;3.784;2023-03-23T10:45:24;17.80;99.90
45409;DHT22;31162;51.076;3.784;2023-03-23T10:50:27;16.90;99.90
45409;DHT22;31162;51.076;3.784;2023-03-23T10:52:55;16.60;99.90
45409;DHT22;31162;51.076;3.784;2023-03-23T10:55:24;16.00;99.90
45409;DHT22;31162;51.076;3.784;2023-03-23T11:00:50;14.60;99.90
45409;DHT22;31162;51.076;3.784;2023-03-23T11:05:52;14.10;99.90
45409;DHT22;31162;51.076;3.784;2023-03-23T11:08:29;14.10;99.90
45409;DHT22;31162;51.076;3.784;2023-03-23T11:11:15;13.90;99.90
45409;DHT22;31162;51.076;3.784;2023-03-23T11:13:46;13.70;99.90
45409;DHT22;31162;51.076;3.784;2023-03-23T11:16:30;13.70;99.90
45409;DHT22;31162;51.076;3.784;2023-03-23T11:18:58;14.10;99.90
45409;DHT22;31162;51.076;3.784;2023-03-23T11:21:24;14.40;99.90
45409;DHT22;31162;51.076;3.784;2023-03-23T11:24:00;14.80;99.90
45409;DHT22;31162;51.076;3.784;2023-03-23T11:26:30;15.00;99.90
45409;DHT22;31162;51.076;3.784;2023-03-23T11:28:58;15.20;99.90
45409;DHT22;31162;51.076;3.784;2023-03-23T11:31:48;15.40;99.90
45409;DHT22;31162;51.076;3.784;2023-03-23T11:34:35;15.60;99.90
45409;DHT22;31162;51.076;3.784;2023-03-23T11:37:07;16.20;99.90
45409;DHT22;31162;51.076;3.784;2023-03-23T11:39:48;15.90;99.90
45409;DHT22;31162;51.076;3.784;2023-03-23T11:42:44;15.10;99.90
45409;DHT22;31162;51.076;3.784;2023-03-23T11:45:17;14.80;99.90
45409;DHT22;31162;51.076;3.784;2023-03-23T11:58:57;18.10;99.90
45409;DHT22;31162;51.076;3.784;2023-03-23T12:17:49;20.90;99.90
45409;DHT22;31162;51.076;3.784;2023-03-23T12:26:13;19.20;99.90
45409;DHT22;31162;51.076;3.784;2023-03-23T12:48:05;16.90;99.90
45409;DHT22;31162;51.076;3.784;2023-03-23T12:50:37;17.30;99.90
45409;DHT22;31162;51.076;3.784;2023-03-23T12:53:13;17.30;99.90
45409;DHT22;31162;51.076;3.784;2023-03-23T12:58:30;17.50;99.90
45409;DHT22;31162;51.076;3.784;2023-03-23T13:01:06;17.70;99.90
45409;DHT22;31162;51.076;3.784;2023-03-23T13:06:32;17.70;99.90
45409;DHT22;31162;51.076;3.784;2023-03-23T13:09:24;17.80;99.90
45409;DHT22;31162;51.076;3.784;2023-03-23T13:11:53;17.60;99.90
45409;DHT22;31162;51.076;3.784;2023-03-23T13:22:29;17.70;99.90
45409;DHT22;31162;51.076;3.784;2023-03-23T13:24:59;17.80;99.90
45409;DHT22;31162;51.076;3.784;2023-03-23T13:27:27;17.80;99.90
45409;DHT22;31162;51.076;3.784;2023-03-23T13:29:54;17.80;99.90
45409;DHT22;31162;51.076;3.784;2023-03-23T13:32:23;18.00;99.90
45409;DHT22;31162;51.076;3.784;2023-03-23T13:34:54;17.90;99.90
45409;DHT22;31162;51.076;3.784;2023-03-23T13:37:25;17.90;99.90
45409;DHT22;31162;51.076;3.784;2023-03-23T13:39:56;17.80;99.90
45409;DHT22;31162;51.076;3.784;2023-03-23T13:42:26;17.90;99.90
45409;DHT22;31162;51.076;3.784;2023-03-23T13:45:05;18.00;99.90
45409;DHT22;31162;51.076;3.784;2023-03-23T13:47:39;17.70;99.90
45409;DHT22;31162;51.076;3.784;2023-03-23T13:52:53;17.40;99.90
45409;DHT22;31162;51.076;3.784;2023-03-23T13:58:08;17.20;99.90
45409;DHT22;31162;51.076;3.784;2023-03-23T14:00:47;17.20;99.90
45409;DHT22;31162;51.076;3.784;2023-03-23T14:03:58;17.30;99.90
45409;DHT22;31162;51.076;3.784;2023-03-23T14:06:14;17.30;99.90
45409;DHT22;31162;51.076;3.784;2023-03-23T14:08:43;17.40;99.90
45409;DHT22;31162;51.076;3.784;2023-03-23T14:11:19;17.60;99.90
45409;DHT22;31162;51.076;3.784;2023-03-23T14:14:07;17.50;99.90
45409;DHT22;31162;51.076;3.784;2023-03-23T14:19:24;17.20;99.90
45409;DHT22;31162;51.076;3.784;2023-03-23T14:21:55;17.10;99.90
45409;DHT22;31162;51.076;3.784;2023-03-23T14:24:27;17.00;99.90
45409;DHT22;31162;51.076;3.784;2023-03-23T14:27:03;17.20;99.90
45409;DHT22;31162;51.076;3.784;2023-03-23T14:29:33;17.80;99.90
45409;DHT22;31162;51.076;3.784;2023-03-23T14:31:59;18.00;99.90
45409;DHT22;31162;51.076;3.784;2023-03-23T14:34:28;17.90;99.90
45409;DHT22;31162;51.076;3.784;2023-03-23T14:36:55;17.70;99.90
45409;DHT22;31162;51.076;3.784;2023-03-23T14:39:31;17.40;99.90
45409;DHT22;31162;51.076;3.784;2023-03-23T14:42:04;17.50;99.90
45409;DHT22;31162;51.076;3.784;2023-03-23T14:44:34;17.60;99.90
45409;DHT22;31162;51.076;3.784;2023-03-23T14:47:05;17.70;99.90
45409;DHT22;31162;51.076;3.784;2023-03-23T14:49:36;17.60;99.90
45409;DHT22;31162;51.076;3.784;2023-03-23T14:52:10;17.50;99.90
45409;DHT22;31162;51.076;3.784;2023-03-23T14:54:36;17.40;99.90
45409;DHT22;31162;51.076;3.784;2023-03-23T14:59:49;17.50;99.90
45409;DHT22;31162;51.076;3.784;2023-03-23T15:02:37;17.40;99.90
45409;DHT22;31162;51.076;3.784;2023-03-23T15:05:13;17.30;99.90
45409;DHT22;31162;51.076;3.784;2023-03-23T15:07:43;17.10;99.90
45409;DHT22;31162;51.076;3.784;2023-03-23T15:10:15;17.10;99.90
45409;DHT22;31162;51.076;3.784;2023-03-23T15:12:44;17.30;99.90
45409;DHT22;31162;51.076;3.784;2023-03-23T15:15:24;17.20;99.90
45409;DHT22;31162;51.076;3.784;2023-03-23T15:17:51;17.20;99.90
45409;DHT22;31162;51.076;3.784;2023-03-23T15:20:32;17.10;99.90
45409;DHT22;31162;51.076;3.784;2023-03-23T15:23:15;17.20;99.90
45409;DHT22;31162;51.076;3.784;2023-03-23T15:25:48;17.50;99.90
45409;DHT22;31162;51.076;3.784;2023-03-23T15:28:31;17.60;99.90
45409;DHT22;31162;51.076;3.784;2023-03-23T15:31:01;17.40;99.90
45409;DHT22;31162;51.076;3.784;2023-03-23T15:33:34;17.20;99.90
45409;DHT22;31162;51.076;3.784;2023-03-23T15:36:07;17.00;99.90
45409;DHT22;31162;51.076;3.784;2023-03-23T15:38:34;16.80;99.90
45409;DHT22;31162;51.076;3.784;2023-03-23T15:41:03;16.60;99.90
45409;DHT22;31162;51.076;3.784;2023-03-23T15:43:35;16.80;99.90
45409;DHT22;31162;51.076;3.784;2023-03-23T15:46:05;17.20;99.90
45409;DHT22;31162;51.076;3.784;2023-03-23T15:48:52;17.10;99.90
45409;DHT22;31162;51.076;3.784;2023-03-23T15:51:21;17.10;99.90
45409;DHT22;31162;51.076;3.784;2023-03-23T15:53:50;17.30;99.90
45409;DHT22;31162;51.076;3.784;2023-03-23T15:56:16;17.00;99.90
45409;DHT22;31162;51.076;3.784;2023-03-23T15:58:43;16.60;99.90
45409;DHT22;31162;51.076;3.784;2023-03-23T16:01:22;16.10;99.90
45409;DHT22;31162;51.076;3.784;2023-03-23T16:03:55;15.40;99.90
45409;DHT22;31162;51.076;3.784;2023-03-23T16:06:25;15.00;99.90
45409;DHT22;31162;51.076;3.784;2023-03-23T16:08:52;14.70;99.90
45409;DHT22;31162;51.076;3.784;2023-03-23T16:11:18;14.60;99.90
45409;DHT22;31162;51.076;3.784;2023-03-23T16:13:45;14.50;99.90
45409;DHT22;31162;51.076;3.784;2023-03-23T16:16:20;14.50;99.90
45409;DHT22;31162;51.076;3.784;2023-03-23T16:18:46;14.60;99.90
45409;DHT22;31162;51.076;3.784;2023-03-23T16:21:12;14.60;99.90
45409;DHT22;31162;51.076;3.784;2023-03-23T16:23:38;14.70;99.90
45409;DHT22;31162;51.076;3.784;2023-03-23T16:26:05;14.80;99.90
45409;DHT22;31162;51.076;3.784;2023-03-23T16:28:31;14.80;99.90
45409;DHT22;31162;51.076;3.784;2023-03-23T16:30:57;15.00;99.90
45409;DHT22;31162;51.076;3.784;2023-03-23T16:33:22;15.10;99.90
45409;DHT22;31162;51.076;3.784;2023-03-23T16:35:48;15.10;99.90
45409;DHT22;31162;51.076;3.784;2023-03-23T16:38:15;15.20;99.90
45409;DHT22;31162;51.076;3.784;2023-03-23T16:40:42;15.20;99.90
45409;DHT22;31162;51.076;3.784;2023-03-23T16:43:09;15.20;99.90
45409;DHT22;31162;51.076;3.784;2023-03-23T16:45:36;15.10;99.90
45409;DHT22;31162;51.076;3.784;2023-03-23T16:48:03;15.20;99.90
45409;DHT22;31162;51.076;3.784;2023-03-23T16:50:29;15.30;99.90
45409;DHT22;31162;51.076;3.784;2023-03-23T16:52:55;15.30;99.90
45409;DHT22;31162;51.076;3.784;2023-03-23T16:55:21;15.30;99.90
45409;DHT22;31162;51.076;3.784;2023-03-23T16:57:47;15.40;99.90
45409;DHT22;31162;51.076;3.784;2023-03-23T17:00:14;15.40;99.90
45409;DHT22;31162;51.076;3.784;2023-03-23T17:02:44;15.40;99.90
45409;DHT22;31162;51.076;3.784;2023-03-23T17:05:11;15.40;99.90
45409;DHT22;31162;51.076;3.784;2023-03-23T17:07:38;15.50;99.90
45409;DHT22;31162;51.076;3.784;2023-03-23T17:10:05;15.50;99.90
45409;DHT22;31162;51.076;3.784;2023-03-23T17:12:31;15.60;99.90
45409;DHT22;31162;51.076;3.784;2023-03-23T17:14:56;15.60;99.90
45409;DHT22;31162;51.076;3.784;2023-03-23T17:17:23;15.70;99.90
45409;DHT22;31162;51.076;3.784;2023-03-23T17:19:49;15.60;99.90
45409;DHT22;31162;51.076;3.784;2023-03-23T17:22:15;15.70;99.90
45409;DHT22;31162;51.076;3.784;2023-03-23T17:24:40;15.70;99.90
45409;DHT22;31162;51.076;3.784;2023-03-23T17:27:06;15.70;99.90
45409;DHT22;31162;51.076;3.784;2023-03-23T17:29:32;15.70;99.90
45409;DHT22;31162;51.076;3.784;2023-03-23T17:31:58;15.60;99.90
45409;DHT22;31162;51.076;3.784;2023-03-23T17:34:24;15.50;99.90
45409;DHT22;31162;51.076;3.784;2023-03-23T17:36:49;15.50;99.90
45409;DHT22;31162;51.076;3.784;2023-03-23T17:39:15;15.50;99.90
45409;DHT22;31162;51.076;3.784;2023-03-23T17:41:41;15.40;99.90
45409;DHT22;31162;51.076;3.784;2023-03-23T17:44:06;15.20;99.90
45409;DHT22;31162;51.076;3.784;2023-03-23T17:46:33;15.20;99.90
45409;DHT22;31162;51.076;3.784;2023-03-23T17:48:58;15.20;99.90